Moscow, OH

07:20 EDT le 20 octobre 2014 (GMT -0400)
Cincinnati Municipal-Lunken | Change Station
CLOSE
Current Station
Aéroport
Location: Cincinnati,
Altitude: 482 ft
Stations météo à proximité

Alt. 482 ft 39.10 °N, 84.42 °W | Updated 27 minutes ago

Couvert
Couvert
46 ° F
Paraît 44 ° F
N
5
Vent Variable Vent de SO

Aujourd'hui
Haut(e) -- | Bas -- ° F
--% Risque de précip.
Hier
Haut(e) -- | Bas -- ° F
Precip. -- pouce
7:51 AM 6:51 PM
Lune descendante, 11% visible
Pression 30.04 pouce
Visibilité 10.0 Miles terrestres
Nuages Peu 12000 ft
Refroidissement éolien 44 ° F
Point de rosée 43 ° F
Humidité 89%
Précipitations 0.00 pouce
Profondeur de la couche neigeuse Non disponible.
UV 0 sur 12
Pollen 1.40 sur 12
Ozone Bon
PM2.5 Moyen
Flu Activity Sporadic
METAR KLUK 201053Z 23004KT 10SM FEW120 08/06 A3003 RMK AO2 SLP170 T00780061

More Conditions Fewer Conditions

Pression 30.04 pouce
Visibilité 10.0 Miles terrestres
Nuages Peu 12000 ft
Refroidissement éolien 44 ° F
Point de rosée 43 ° F
Humidité 89%
Précipitations 0.00 pouce
Profondeur de la couche neigeuse Non disponible.
UV 0 sur 12
Pollen 1.40 sur 12
Ozone Bon
PM2.5 Moyen
Flu Activity Sporadic
METAR KLUK 201053Z 23004KT 10SM FEW120 08/06 A3003 RMK AO2 SLP170 T00780061

More Conditions Fewer Conditions

10-Day Weather Forecast

Almanac

Astronomie

Oct. 20, 2014 Lever Coucher
Temps réel 07:51 EDT 18:51 EDT
Crépuscule civil 07:24 EDT 19:18 EDT
Crépuscule nautique 06:53 EDT 19:49 EDT
Crépuscule astronomique 06:22 EDT 20:20 EDT
Lune 04:40 EDT 17:11 EDT
Durée de lumière visible 11h 54m
Longueur du jour
11h 00m
Lune descendante, 11% of the Moon is Illuminated
Aujourd'hui
Lune descendante
Oct 23
Nouveau
Oct 30
Premier quartier
Nov 6
Pleine lune
Nov 14
Dernier quartier

Extrêmes aujourd'hui

State Highs State Lows

Community

WunderPhotos

Upload Photos

1,763,338 Photos téléchargées !

Nearby

Qualité de l'air

  Qualité de l'air Indice de la qualité de l'air Polluant
Hier Bon
PM10
Hier Bon
OZONE
Actuel Moyen
PM2.5
Actuel Bon
OZONE
lundi Bon
PM2.5
lundi Bon
OZONE

Épaisseur de neige

Station Depth Altitude
Pas de nouvelles chutes de neige

Activité sismique

Ville Distance Mag. Time & Date
No recent earthquake activity has been reported nearby.
Minimum magnitude displayed is 2.5.

Températures des eaux côtières

Lieu Température
Aucun rapport de station

Stations météo à proximité